sensor_id;sensor_type;location;lat;lon;timestamp;P1;durP1;ratioP1;P2;durP2;ratioP2
52642;SDS011;38531;53.296;6.614;2023-06-14T01:58:52;1.13;;;0.60;;
52642;SDS011;38531;53.296;6.614;2023-06-14T02:01:19;3.00;;;0.70;;
52642;SDS011;38531;53.296;6.614;2023-06-14T02:03:48;2.05;;;0.85;;
52642;SDS011;38531;53.296;6.614;2023-06-14T02:06:14;1.25;;;0.50;;
52642;SDS011;38531;53.296;6.614;2023-06-14T02:08:41;1.33;;;0.88;;
52642;SDS011;38531;53.296;6.614;2023-06-14T02:11:07;1.67;;;0.65;;
52642;SDS011;38531;53.296;6.614;2023-06-14T02:13:34;1.23;;;0.55;;
52642;SDS011;38531;53.296;6.614;2023-06-14T02:16:00;4.03;;;0.70;;
52642;SDS011;38531;53.296;6.614;2023-06-14T02:18:26;2.10;;;0.93;;
52642;SDS011;38531;53.296;6.614;2023-06-14T02:20:52;1.83;;;0.65;;
52642;SDS011;38531;53.296;6.614;2023-06-14T02:23:18;2.15;;;0.65;;
52642;SDS011;38531;53.296;6.614;2023-06-14T02:25:45;2.53;;;0.88;;
52642;SDS011;38531;53.296;6.614;2023-06-14T02:28:11;3.55;;;0.90;;
52642;SDS011;38531;53.296;6.614;2023-06-14T02:30:37;0.85;;;0.60;;
52642;SDS011;38531;53.296;6.614;2023-06-14T02:33:04;1.00;;;0.60;;
52642;SDS011;38531;53.296;6.614;2023-06-14T02:35:30;2.25;;;0.90;;
52642;SDS011;38531;53.296;6.614;2023-06-14T02:37:56;1.27;;;0.70;;
52642;SDS011;38531;53.296;6.614;2023-06-14T02:40:22;1.48;;;0.70;;
52642;SDS011;38531;53.296;6.614;2023-06-14T02:42:49;1.65;;;0.80;;
52642;SDS011;38531;53.296;6.614;2023-06-14T02:45:15;1.10;;;0.70;;
52642;SDS011;38531;53.296;6.614;2023-06-14T02:47:41;3.78;;;0.90;;
52642;SDS011;38531;53.296;6.614;2023-06-14T02:50:07;1.40;;;0.80;;
52642;SDS011;38531;53.296;6.614;2023-06-14T02:52:34;1.10;;;0.70;;
52642;SDS011;38531;53.296;6.614;2023-06-14T02:55:00;2.05;;;0.73;;
52642;SDS011;38531;53.296;6.614;2023-06-14T02:57:26;2.65;;;0.70;;
52642;SDS011;38531;53.296;6.614;2023-06-14T02:59:52;2.58;;;0.85;;
52642;SDS011;38531;53.296;6.614;2023-06-14T03:02:18;1.65;;;0.90;;
52642;SDS011;38531;53.296;6.614;2023-06-14T03:04:44;2.83;;;0.98;;
52642;SDS011;38531;53.296;6.614;2023-06-14T03:07:12;1.25;;;0.70;;
52642;SDS011;38531;53.296;6.614;2023-06-14T03:09:39;1.80;;;0.93;;
52642;SDS011;38531;53.296;6.614;2023-06-14T03:12:06;2.55;;;0.77;;
52642;SDS011;38531;53.296;6.614;2023-06-14T03:14:32;3.17;;;0.90;;
52642;SDS011;38531;53.296;6.614;2023-06-14T03:20:38;1.23;;;0.70;;
52642;SDS011;38531;53.296;6.614;2023-06-14T03:23:04;1.50;;;1.05;;
52642;SDS011;38531;53.296;6.614;2023-06-14T03:25:31;0.82;;;0.50;;
52642;SDS011;38531;53.296;6.614;2023-06-14T03:27:58;1.10;;;0.60;;
52642;SDS011;38531;53.296;6.614;2023-06-14T03:30:24;2.30;;;0.70;;
52642;SDS011;38531;53.296;6.614;2023-06-14T03:32:50;2.80;;;0.70;;
52642;SDS011;38531;53.296;6.614;2023-06-14T03:35:18;1.10;;;0.60;;
52642;SDS011;38531;53.296;6.614;2023-06-14T03:37:44;1.52;;;0.70;;
52642;SDS011;38531;53.296;6.614;2023-06-14T03:40:11;1.38;;;0.70;;
52642;SDS011;38531;53.296;6.614;2023-06-14T03:42:37;2.78;;;1.08;;
52642;SDS011;38531;53.296;6.614;2023-06-14T03:45:04;2.03;;;0.80;;
52642;SDS011;38531;53.296;6.614;2023-06-14T03:47:30;1.50;;;0.70;;
52642;SDS011;38531;53.296;6.614;2023-06-14T03:49:56;1.20;;;0.60;;
52642;SDS011;38531;53.296;6.614;2023-06-14T03:52:22;2.17;;;0.75;;
52642;SDS011;38531;53.296;6.614;2023-06-14T03:54:48;1.92;;;0.70;;
52642;SDS011;38531;53.296;6.614;2023-06-14T03:57:15;1.30;;;0.70;;
52642;SDS011;38531;53.296;6.614;2023-06-14T03:59:41;1.90;;;0.70;;
52642;SDS011;38531;53.296;6.614;2023-06-14T04:02:08;2.33;;;0.70;;
52642;SDS011;38531;53.296;6.614;2023-06-14T04:04:40;0.85;;;0.65;;
52642;SDS011;38531;53.296;6.614;2023-06-14T04:07:12;2.15;;;0.90;;
52642;SDS011;38531;53.296;6.614;2023-06-14T04:09:39;1.63;;;0.85;;
52642;SDS011;38531;53.296;6.614;2023-06-14T04:12:05;2.13;;;0.70;;
52642;SDS011;38531;53.296;6.614;2023-06-14T04:14:33;2.28;;;0.95;;
52642;SDS011;38531;53.296;6.614;2023-06-14T04:17:00;2.08;;;0.85;;
52642;SDS011;38531;53.296;6.614;2023-06-14T04:19:26;1.80;;;0.90;;
52642;SDS011;38531;53.296;6.614;2023-06-14T04:21:52;5.15;;;1.35;;
52642;SDS011;38531;53.296;6.614;2023-06-14T04:24:18;1.58;;;0.85;;
52642;SDS011;38531;53.296;6.614;2023-06-14T04:26:44;1.88;;;0.70;;
52642;SDS011;38531;53.296;6.614;2023-06-14T04:29:13;1.65;;;1.08;;
52642;SDS011;38531;53.296;6.614;2023-06-14T04:31:42;2.70;;;0.80;;
52642;SDS011;38531;53.296;6.614;2023-06-14T04:34:09;2.60;;;0.93;;
52642;SDS011;38531;53.296;6.614;2023-06-14T04:36:41;1.55;;;0.80;;
52642;SDS011;38531;53.296;6.614;2023-06-14T04:39:14;2.03;;;0.93;;
52642;SDS011;38531;53.296;6.614;2023-06-14T04:41:40;2.28;;;0.90;;
52642;SDS011;38531;53.296;6.614;2023-06-14T04:44:06;1.58;;;0.90;;
52642;SDS011;38531;53.296;6.614;2023-06-14T04:46:32;1.60;;;0.93;;
52642;SDS011;38531;53.296;6.614;2023-06-14T04:49:11;2.30;;;0.80;;
52642;SDS011;38531;53.296;6.614;2023-06-14T04:51:39;2.28;;;0.90;;
52642;SDS011;38531;53.296;6.614;2023-06-14T04:54:06;1.50;;;0.85;;
52642;SDS011;38531;53.296;6.614;2023-06-14T04:56:38;1.27;;;0.70;;
52642;SDS011;38531;53.296;6.614;2023-06-14T04:59:04;1.38;;;0.82;;
52642;SDS011;38531;53.296;6.614;2023-06-14T05:01:30;1.95;;;1.13;;
52642;SDS011;38531;53.296;6.614;2023-06-14T05:03:59;1.70;;;1.10;;
52642;SDS011;38531;53.296;6.614;2023-06-14T05:06:25;3.22;;;1.20;;
52642;SDS011;38531;53.296;6.614;2023-06-14T05:08:52;1.23;;;0.90;;
52642;SDS011;38531;53.296;6.614;2023-06-14T05:11:19;1.77;;;0.90;;
52642;SDS011;38531;53.296;6.614;2023-06-14T05:13:45;1.98;;;1.42;;
52642;SDS011;38531;53.296;6.614;2023-06-14T05:16:12;1.20;;;0.77;;
52642;SDS011;38531;53.296;6.614;2023-06-14T05:18:40;2.75;;;1.10;;
52642;SDS011;38531;53.296;6.614;2023-06-14T05:21:06;3.10;;;1.80;;
52642;SDS011;38531;53.296;6.614;2023-06-14T05:23:33;2.75;;;1.38;;
52642;SDS011;38531;53.296;6.614;2023-06-14T05:26:00;2.42;;;1.63;;
52642;SDS011;38531;53.296;6.614;2023-06-14T05:28:28;4.75;;;1.95;;
52642;SDS011;38531;53.296;6.614;2023-06-14T05:30:54;2.75;;;1.55;;
52642;SDS011;38531;53.296;6.614;2023-06-14T05:33:20;3.40;;;1.10;;
52642;SDS011;38531;53.296;6.614;2023-06-14T05:35:46;2.75;;;1.48;;
52642;SDS011;38531;53.296;6.614;2023-06-14T05:38:12;3.20;;;1.10;;
52642;SDS011;38531;53.296;6.614;2023-06-14T05:40:39;2.47;;;1.00;;
52642;SDS011;38531;53.296;6.614;2023-06-14T05:43:05;2.28;;;1.50;;
52642;SDS011;38531;53.296;6.614;2023-06-14T05:45:31;3.45;;;1.67;;
52642;SDS011;38531;53.296;6.614;2023-06-14T05:47:57;1.90;;;1.00;;
52642;SDS011;38531;53.296;6.614;2023-06-14T05:50:23;3.70;;;1.20;;
52642;SDS011;38531;53.296;6.614;2023-06-14T05:52:49;5.30;;;1.20;;
52642;SDS011;38531;53.296;6.614;2023-06-14T05:55:16;2.70;;;1.20;;
52642;SDS011;38531;53.296;6.614;2023-06-14T05:57:42;3.83;;;1.40;;
52642;SDS011;38531;53.296;6.614;2023-06-14T06:00:09;3.28;;;1.25;;
52642;SDS011;38531;53.296;6.614;2023-06-14T06:02:44;2.00;;;1.30;;
52642;SDS011;38531;53.296;6.614;2023-06-14T06:05:14;2.53;;;1.05;;
52642;SDS011;38531;53.296;6.614;2023-06-14T06:07:43;4.72;;;1.30;;
52642;SDS011;38531;53.296;6.614;2023-06-14T06:10:12;1.92;;;1.00;;
52642;SDS011;38531;53.296;6.614;2023-06-14T06:12:38;1.77;;;1.05;;
52642;SDS011;38531;53.296;6.614;2023-06-14T06:15:04;1.92;;;1.15;;
52642;SDS011;38531;53.296;6.614;2023-06-14T06:17:31;2.10;;;1.13;;
52642;SDS011;38531;53.296;6.614;2023-06-14T06:19:57;1.70;;;0.90;;
52642;SDS011;38531;53.296;6.614;2023-06-14T06:22:23;3.10;;;1.35;;
52642;SDS011;38531;53.296;6.614;2023-06-14T06:24:49;4.03;;;1.13;;
52642;SDS011;38531;53.296;6.614;2023-06-14T06:27:15;2.63;;;1.60;;
52642;SDS011;38531;53.296;6.614;2023-06-14T06:29:43;4.45;;;1.55;;
52642;SDS011;38531;53.296;6.614;2023-06-14T06:32:10;1.45;;;1.15;;
52642;SDS011;38531;53.296;6.614;2023-06-14T06:34:36;1.92;;;0.93;;
52642;SDS011;38531;53.296;6.614;2023-06-14T06:37:02;2.22;;;0.88;;
52642;SDS011;38531;53.296;6.614;2023-06-14T06:39:28;1.13;;;0.70;;
52642;SDS011;38531;53.296;6.614;2023-06-14T06:41:54;2.25;;;0.80;;
52642;SDS011;38531;53.296;6.614;2023-06-14T06:44:20;6.40;;;1.40;;
52642;SDS011;38531;53.296;6.614;2023-06-14T06:46:46;3.35;;;1.30;;
52642;SDS011;38531;53.296;6.614;2023-06-14T06:49:12;1.85;;;1.20;;
52642;SDS011;38531;53.296;6.614;2023-06-14T06:51:42;5.03;;;0.73;;
52642;SDS011;38531;53.296;6.614;2023-06-14T06:54:09;1.55;;;0.90;;
52642;SDS011;38531;53.296;6.614;2023-06-14T06:56:35;2.17;;;0.85;;
52642;SDS011;38531;53.296;6.614;2023-06-14T06:59:04;1.30;;;0.70;;
52642;SDS011;38531;53.296;6.614;2023-06-14T07:01:34;4.07;;;0.93;;
52642;SDS011;38531;53.296;6.614;2023-06-14T07:04:01;1.20;;;0.60;;
52642;SDS011;38531;53.296;6.614;2023-06-14T07:06:28;1.42;;;0.75;;
52642;SDS011;38531;53.296;6.614;2023-06-14T07:08:55;2.13;;;0.80;;
52642;SDS011;38531;53.296;6.614;2023-06-14T07:11:28;1.42;;;0.70;;
52642;SDS011;38531;53.296;6.614;2023-06-14T07:13:57;2.10;;;1.00;;
52642;SDS011;38531;53.296;6.614;2023-06-14T07:16:23;2.83;;;0.70;;
52642;SDS011;38531;53.296;6.614;2023-06-14T07:18:50;2.03;;;1.00;;
52642;SDS011;38531;53.296;6.614;2023-06-14T07:21:17;1.20;;;0.70;;
52642;SDS011;38531;53.296;6.614;2023-06-14T07:23:43;1.58;;;0.80;;
52642;SDS011;38531;53.296;6.614;2023-06-14T07:26:10;2.22;;;1.05;;
52642;SDS011;38531;53.296;6.614;2023-06-14T07:28:36;1.88;;;0.75;;
52642;SDS011;38531;53.296;6.614;2023-06-14T07:31:02;5.88;;;1.00;;
52642;SDS011;38531;53.296;6.614;2023-06-14T07:33:28;1.35;;;0.95;;
52642;SDS011;38531;53.296;6.614;2023-06-14T07:35:54;1.20;;;0.65;;
52642;SDS011;38531;53.296;6.614;2023-06-14T07:38:21;1.90;;;0.80;;
52642;SDS011;38531;53.296;6.614;2023-06-14T07:40:47;2.85;;;1.00;;
52642;SDS011;38531;53.296;6.614;2023-06-14T07:43:13;1.73;;;0.80;;
52642;SDS011;38531;53.296;6.614;2023-06-14T07:45:39;1.42;;;0.80;;
52642;SDS011;38531;53.296;6.614;2023-06-14T07:48:05;1.77;;;0.75;;
52642;SDS011;38531;53.296;6.614;2023-06-14T07:50:34;2.80;;;0.75;;
52642;SDS011;38531;53.296;6.614;2023-06-14T07:53:00;1.55;;;0.60;;
52642;SDS011;38531;53.296;6.614;2023-06-14T07:55:27;3.05;;;0.70;;
52642;SDS011;38531;53.296;6.614;2023-06-14T07:57:53;4.78;;;0.82;;
52642;SDS011;38531;53.296;6.614;2023-06-14T08:00:19;2.25;;;0.82;;
52642;SDS011;38531;53.296;6.614;2023-06-14T08:02:45;2.22;;;0.90;;
52642;SDS011;38531;53.296;6.614;2023-06-14T08:05:11;3.10;;;0.77;;
52642;SDS011;38531;53.296;6.614;2023-06-14T08:07:38;2.38;;;0.82;;
52642;SDS011;38531;53.296;6.614;2023-06-14T08:10:05;1.92;;;0.80;;
52642;SDS011;38531;53.296;6.614;2023-06-14T08:12:37;2.92;;;1.05;;
52642;SDS011;38531;53.296;6.614;2023-06-14T08:15:03;2.40;;;0.80;;
52642;SDS011;38531;53.296;6.614;2023-06-14T08:17:29;2.08;;;0.80;;
52642;SDS011;38531;53.296;6.614;2023-06-14T08:19:54;1.38;;;0.75;;
52642;SDS011;38531;53.296;6.614;2023-06-14T08:22:22;2.45;;;0.98;;
52642;SDS011;38531;53.296;6.614;2023-06-14T08:24:49;2.72;;;0.63;;
52642;SDS011;38531;53.296;6.614;2023-06-14T08:27:15;4.85;;;1.70;;
52642;SDS011;38531;53.296;6.614;2023-06-14T08:29:41;4.45;;;0.90;;
52642;SDS011;38531;53.296;6.614;2023-06-14T08:32:07;3.53;;;1.10;;
52642;SDS011;38531;53.296;6.614;2023-06-14T08:34:33;2.28;;;1.15;;
52642;SDS011;38531;53.296;6.614;2023-06-14T08:36:58;2.42;;;0.80;;
52642;SDS011;38531;53.296;6.614;2023-06-14T08:39:24;2.50;;;0.93;;
52642;SDS011;38531;53.296;6.614;2023-06-14T08:41:50;3.78;;;0.70;;
52642;SDS011;38531;53.296;6.614;2023-06-14T08:44:18;1.38;;;0.70;;
52642;SDS011;38531;53.296;6.614;2023-06-14T08:46:43;2.10;;;0.80;;
52642;SDS011;38531;53.296;6.614;2023-06-14T08:49:13;1.75;;;0.70;;
52642;SDS011;38531;53.296;6.614;2023-06-14T08:51:42;1.98;;;0.73;;
52642;SDS011;38531;53.296;6.614;2023-06-14T08:54:10;1.20;;;0.70;;
52642;SDS011;38531;53.296;6.614;2023-06-14T08:56:38;2.05;;;0.55;;
52642;SDS011;38531;53.296;6.614;2023-06-14T08:59:06;2.47;;;0.60;;
52642;SDS011;38531;53.296;6.614;2023-06-14T09:01:34;1.80;;;0.70;;
52642;SDS011;38531;53.296;6.614;2023-06-14T09:04:00;1.63;;;0.80;;
52642;SDS011;38531;53.296;6.614;2023-06-14T09:06:27;1.15;;;0.70;;
52642;SDS011;38531;53.296;6.614;2023-06-14T09:08:54;1.83;;;0.98;;
52642;SDS011;38531;53.296;6.614;2023-06-14T09:11:22;1.45;;;0.80;;
52642;SDS011;38531;53.296;6.614;2023-06-14T09:13:49;2.72;;;0.90;;
52642;SDS011;38531;53.296;6.614;2023-06-14T09:16:15;1.45;;;0.77;;
52642;SDS011;38531;53.296;6.614;2023-06-14T09:18:44;1.88;;;0.80;;
52642;SDS011;38531;53.296;6.614;2023-06-14T09:21:13;3.00;;;0.93;;
52642;SDS011;38531;53.296;6.614;2023-06-14T09:23:41;2.63;;;0.75;;
52642;SDS011;38531;53.296;6.614;2023-06-14T09:28:44;2.42;;;0.80;;
52642;SDS011;38531;53.296;6.614;2023-06-14T09:31:14;1.10;;;0.77;;
52642;SDS011;38531;53.296;6.614;2023-06-14T09:33:42;1.55;;;0.75;;
52642;SDS011;38531;53.296;6.614;2023-06-14T09:36:18;3.13;;;0.60;;
52642;SDS011;38531;53.296;6.614;2023-06-14T09:38:52;1.13;;;0.73;;
52642;SDS011;38531;53.296;6.614;2023-06-14T09:41:33;1.85;;;0.70;;
52642;SDS011;38531;53.296;6.614;2023-06-14T09:44:00;4.53;;;0.88;;
52642;SDS011;38531;53.296;6.614;2023-06-14T09:46:27;1.95;;;1.00;;
52642;SDS011;38531;53.296;6.614;2023-06-14T09:48:57;2.35;;;0.60;;
52642;SDS011;38531;53.296;6.614;2023-06-14T09:51:23;1.73;;;0.70;;
52642;SDS011;38531;53.296;6.614;2023-06-14T09:53:50;0.95;;;0.60;;
52642;SDS011;38531;53.296;6.614;2023-06-14T09:56:23;4.20;;;0.70;;
52642;SDS011;38531;53.296;6.614;2023-06-14T09:58:52;2.53;;;0.70;;
52642;SDS011;38531;53.296;6.614;2023-06-14T10:01:20;2.10;;;0.93;;
52642;SDS011;38531;53.296;6.614;2023-06-14T10:03:49;6.18;;;0.82;;
52642;SDS011;38531;53.296;6.614;2023-06-14T10:06:19;1.33;;;0.57;;
52642;SDS011;38531;53.296;6.614;2023-06-14T10:08:49;1.98;;;0.68;;
52642;SDS011;38531;53.296;6.614;2023-06-14T10:11:17;1.85;;;0.70;;
52642;SDS011;38531;53.296;6.614;2023-06-14T10:13:43;1.05;;;0.73;;
52642;SDS011;38531;53.296;6.614;2023-06-14T10:16:10;2.33;;;0.80;;
52642;SDS011;38531;53.296;6.614;2023-06-14T10:18:48;2.08;;;0.80;;
52642;SDS011;38531;53.296;6.614;2023-06-14T10:21:38;1.50;;;0.90;;
52642;SDS011;38531;53.296;6.614;2023-06-14T10:24:13;2.45;;;1.10;;
52642;SDS011;38531;53.296;6.614;2023-06-14T10:26:50;1.60;;;0.77;;
52642;SDS011;38531;53.296;6.614;2023-06-14T10:29:16;1.17;;;0.65;;
52642;SDS011;38531;53.296;6.614;2023-06-14T10:31:43;2.85;;;0.70;;
52642;SDS011;38531;53.296;6.614;2023-06-14T10:34:10;2.53;;;0.95;;
52642;SDS011;38531;53.296;6.614;2023-06-14T10:36:37;2.38;;;0.60;;
52642;SDS011;38531;53.296;6.614;2023-06-14T10:39:07;3.50;;;0.65;;
52642;SDS011;38531;53.296;6.614;2023-06-14T10:41:55;2.00;;;0.77;;
52642;SDS011;38531;53.296;6.614;2023-06-14T10:46:53;1.23;;;0.60;;
52642;SDS011;38531;53.296;6.614;2023-06-14T10:52:22;3.03;;;0.80;;
52642;SDS011;38531;53.296;6.614;2023-06-14T11:00:13;3.72;;;0.80;;
52642;SDS011;38531;53.296;6.614;2023-06-14T11:02:51;3.95;;;0.80;;
52642;SDS011;38531;53.296;6.614;2023-06-14T11:05:42;3.05;;;0.60;;
52642;SDS011;38531;53.296;6.614;2023-06-14T11:11:00;3.60;;;0.98;;
52642;SDS011;38531;53.296;6.614;2023-06-14T11:13:30;1.85;;;1.08;;
52642;SDS011;38531;53.296;6.614;2023-06-14T11:15:56;1.90;;;0.77;;
52642;SDS011;38531;53.296;6.614;2023-06-14T11:18:22;1.58;;;0.57;;
52642;SDS011;38531;53.296;6.614;2023-06-14T11:20:55;1.83;;;0.70;;
52642;SDS011;38531;53.296;6.614;2023-06-14T11:23:21;3.17;;;1.17;;
52642;SDS011;38531;53.296;6.614;2023-06-14T11:25:51;2.03;;;0.90;;
52642;SDS011;38531;53.296;6.614;2023-06-14T11:28:17;1.98;;;0.70;;
52642;SDS011;38531;53.296;6.614;2023-06-14T11:33:33;2.95;;;0.50;;
52642;SDS011;38531;53.296;6.614;2023-06-14T11:36:01;1.77;;;0.73;;
52642;SDS011;38531;53.296;6.614;2023-06-14T11:38:35;3.25;;;0.90;;
52642;SDS011;38531;53.296;6.614;2023-06-14T11:41:03;2.22;;;0.70;;
52642;SDS011;38531;53.296;6.614;2023-06-14T11:43:32;1.38;;;0.70;;
52642;SDS011;38531;53.296;6.614;2023-06-14T11:46:03;1.00;;;0.60;;
52642;SDS011;38531;53.296;6.614;2023-06-14T11:48:38;1.02;;;0.50;;
52642;SDS011;38531;53.296;6.614;2023-06-14T11:51:05;3.10;;;1.30;;
52642;SDS011;38531;53.296;6.614;2023-06-14T11:53:31;1.45;;;0.60;;
52642;SDS011;38531;53.296;6.614;2023-06-14T11:55:58;1.55;;;0.63;;
52642;SDS011;38531;53.296;6.614;2023-06-14T11:58:26;1.45;;;0.60;;
52642;SDS011;38531;53.296;6.614;2023-06-14T12:00:54;1.48;;;0.63;;
52642;SDS011;38531;53.296;6.614;2023-06-14T12:03:28;1.52;;;0.50;;
52642;SDS011;38531;53.296;6.614;2023-06-14T12:06:06;2.22;;;0.40;;
52642;SDS011;38531;53.296;6.614;2023-06-14T12:08:36;1.42;;;0.57;;
52642;SDS011;38531;53.296;6.614;2023-06-14T12:11:06;1.42;;;0.40;;
52642;SDS011;38531;53.296;6.614;2023-06-14T12:13:38;2.42;;;0.52;;
52642;SDS011;38531;53.296;6.614;2023-06-14T12:16:07;1.20;;;0.50;;
52642;SDS011;38531;53.296;6.614;2023-06-14T12:18:37;1.25;;;0.50;;
52642;SDS011;38531;53.296;6.614;2023-06-14T12:21:05;0.95;;;0.50;;
52642;SDS011;38531;53.296;6.614;2023-06-14T12:23:47;0.93;;;0.50;;
52642;SDS011;38531;53.296;6.614;2023-06-14T12:26:18;1.23;;;0.47;;
52642;SDS011;38531;53.296;6.614;2023-06-14T12:28:45;1.17;;;0.60;;
52642;SDS011;38531;53.296;6.614;2023-06-14T12:31:13;2.05;;;0.50;;
52642;SDS011;38531;53.296;6.614;2023-06-14T12:33:40;1.35;;;0.50;;
52642;SDS011;38531;53.296;6.614;2023-06-14T12:36:09;1.30;;;0.50;;
52642;SDS011;38531;53.296;6.614;2023-06-14T12:38:35;1.50;;;0.70;;
52642;SDS011;38531;53.296;6.614;2023-06-14T12:41:02;1.42;;;0.60;;
52642;SDS011;38531;53.296;6.614;2023-06-14T12:43:28;1.80;;;0.45;;
52642;SDS011;38531;53.296;6.614;2023-06-14T12:45:54;1.15;;;0.50;;
52642;SDS011;38531;53.296;6.614;2023-06-14T12:48:20;0.77;;;0.30;;
52642;SDS011;38531;53.296;6.614;2023-06-14T12:50:47;0.93;;;0.40;;
52642;SDS011;38531;53.296;6.614;2023-06-14T12:53:13;0.80;;;0.40;;
52642;SDS011;38531;53.296;6.614;2023-06-14T12:55:39;1.48;;;0.40;;
52642;SDS011;38531;53.296;6.614;2023-06-14T12:58:05;0.65;;;0.38;;
52642;SDS011;38531;53.296;6.614;2023-06-14T13:00:30;2.63;;;0.35;;
52642;SDS011;38531;53.296;6.614;2023-06-14T13:02:56;3.03;;;0.50;;
52642;SDS011;38531;53.296;6.614;2023-06-14T13:05:23;1.27;;;0.50;;
52642;SDS011;38531;53.296;6.614;2023-06-14T13:07:49;2.05;;;0.45;;
52642;SDS011;38531;53.296;6.614;2023-06-14T13:10:15;2.42;;;0.52;;
52642;SDS011;38531;53.296;6.614;2023-06-14T13:12:42;0.68;;;0.45;;
52642;SDS011;38531;53.296;6.614;2023-06-14T13:15:08;0.80;;;0.40;;
52642;SDS011;38531;53.296;6.614;2023-06-14T13:17:35;2.15;;;0.43;;
52642;SDS011;38531;53.296;6.614;2023-06-14T13:20:06;1.05;;;0.40;;
52642;SDS011;38531;53.296;6.614;2023-06-14T13:22:36;1.10;;;0.40;;
52642;SDS011;38531;53.296;6.614;2023-06-14T13:25:02;1.15;;;0.50;;
52642;SDS011;38531;53.296;6.614;2023-06-14T13:27:29;1.23;;;0.45;;
52642;SDS011;38531;53.296;6.614;2023-06-14T13:29:54;1.73;;;0.50;;
52642;SDS011;38531;53.296;6.614;2023-06-14T13:32:20;1.13;;;0.50;;
52642;SDS011;38531;53.296;6.614;2023-06-14T13:34:47;1.70;;;0.60;;
52642;SDS011;38531;53.296;6.614;2023-06-14T13:37:13;0.47;;;0.43;;
52642;SDS011;38531;53.296;6.614;2023-06-14T13:39:39;1.70;;;0.60;;
52642;SDS011;38531;53.296;6.614;2023-06-14T13:42:05;3.15;;;0.55;;
52642;SDS011;38531;53.296;6.614;2023-06-14T13:44:31;0.75;;;0.40;;
52642;SDS011;38531;53.296;6.614;2023-06-14T13:46:57;2.45;;;0.60;;
52642;SDS011;38531;53.296;6.614;2023-06-14T13:49:22;1.15;;;0.50;;
52642;SDS011;38531;53.296;6.614;2023-06-14T13:51:48;1.27;;;0.60;;
52642;SDS011;38531;53.296;6.614;2023-06-14T13:54:14;1.35;;;0.50;;
52642;SDS011;38531;53.296;6.614;2023-06-14T13:56:40;1.05;;;0.63;;
52642;SDS011;38531;53.296;6.614;2023-06-14T13:59:06;0.85;;;0.40;;
52642;SDS011;38531;53.296;6.614;2023-06-14T14:01:32;0.73;;;0.43;;
52642;SDS011;38531;53.296;6.614;2023-06-14T14:03:58;2.60;;;1.02;;
52642;SDS011;38531;53.296;6.614;2023-06-14T14:06:25;1.83;;;0.70;;
52642;SDS011;38531;53.296;6.614;2023-06-14T14:08:51;1.35;;;0.50;;
52642;SDS011;38531;53.296;6.614;2023-06-14T14:11:18;1.25;;;0.60;;
52642;SDS011;38531;53.296;6.614;2023-06-14T14:13:44;1.58;;;0.50;;
52642;SDS011;38531;53.296;6.614;2023-06-14T14:16:10;0.82;;;0.52;;
52642;SDS011;38531;53.296;6.614;2023-06-14T14:18:35;1.85;;;0.70;;
52642;SDS011;38531;53.296;6.614;2023-06-14T14:21:02;2.38;;;0.50;;
52642;SDS011;38531;53.296;6.614;2023-06-14T14:23:28;1.30;;;0.60;;
52642;SDS011;38531;53.296;6.614;2023-06-14T14:25:54;2.03;;;0.50;;
52642;SDS011;38531;53.296;6.614;2023-06-14T14:28:20;0.90;;;0.50;;
52642;SDS011;38531;53.296;6.614;2023-06-14T14:30:46;1.45;;;0.60;;
52642;SDS011;38531;53.296;6.614;2023-06-14T14:33:13;1.20;;;0.40;;
52642;SDS011;38531;53.296;6.614;2023-06-14T14:35:41;0.68;;;0.50;;
52642;SDS011;38531;53.296;6.614;2023-06-14T14:38:08;0.98;;;0.55;;
52642;SDS011;38531;53.296;6.614;2023-06-14T14:40:34;1.40;;;0.60;;
52642;SDS011;38531;53.296;6.614;2023-06-14T14:43:00;0.63;;;0.50;;
52642;SDS011;38531;53.296;6.614;2023-06-14T14:45:25;1.20;;;0.50;;
52642;SDS011;38531;53.296;6.614;2023-06-14T14:47:51;1.63;;;0.60;;
52642;SDS011;38531;53.296;6.614;2023-06-14T14:50:17;1.25;;;0.55;;
52642;SDS011;38531;53.296;6.614;2023-06-14T14:52:43;3.13;;;0.77;;
52642;SDS011;38531;53.296;6.614;2023-06-14T14:55:08;2.75;;;0.90;;
52642;SDS011;38531;53.296;6.614;2023-06-14T14:57:34;1.92;;;0.60;;
52642;SDS011;38531;53.296;6.614;2023-06-14T15:00:02;1.20;;;0.77;;
52642;SDS011;38531;53.296;6.614;2023-06-14T15:02:28;2.10;;;0.75;;
52642;SDS011;38531;53.296;6.614;2023-06-14T15:04:54;3.50;;;0.85;;
52642;SDS011;38531;53.296;6.614;2023-06-14T15:07:22;4.55;;;0.77;;
52642;SDS011;38531;53.296;6.614;2023-06-14T15:09:48;2.15;;;0.90;;
52642;SDS011;38531;53.296;6.614;2023-06-14T15:12:16;3.13;;;0.80;;
52642;SDS011;38531;53.296;6.614;2023-06-14T15:14:41;3.63;;;0.80;;
52642;SDS011;38531;53.296;6.614;2023-06-14T15:17:07;3.60;;;0.80;;
52642;SDS011;38531;53.296;6.614;2023-06-14T15:19:33;5.97;;;1.05;;
52642;SDS011;38531;53.296;6.614;2023-06-14T15:21:59;1.40;;;0.75;;
52642;SDS011;38531;53.296;6.614;2023-06-14T15:24:25;1.75;;;1.00;;
52642;SDS011;38531;53.296;6.614;2023-06-14T15:26:50;4.10;;;1.05;;
52642;SDS011;38531;53.296;6.614;2023-06-14T15:29:16;2.67;;;1.00;;
52642;SDS011;38531;53.296;6.614;2023-06-14T15:31:42;2.65;;;0.98;;
52642;SDS011;38531;53.296;6.614;2023-06-14T15:34:08;1.83;;;0.90;;
52642;SDS011;38531;53.296;6.614;2023-06-14T15:36:33;2.75;;;0.70;;
52642;SDS011;38531;53.296;6.614;2023-06-14T15:39:00;2.65;;;0.70;;
52642;SDS011;38531;53.296;6.614;2023-06-14T15:41:25;3.40;;;0.80;;
52642;SDS011;38531;53.296;6.614;2023-06-14T15:43:51;4.57;;;0.88;;
52642;SDS011;38531;53.296;6.614;2023-06-14T15:46:18;2.50;;;0.90;;
52642;SDS011;38531;53.296;6.614;2023-06-14T15:48:46;1.95;;;0.70;;
52642;SDS011;38531;53.296;6.614;2023-06-14T15:51:12;2.85;;;0.90;;
52642;SDS011;38531;53.296;6.614;2023-06-14T15:53:37;1.55;;;0.77;;
52642;SDS011;38531;53.296;6.614;2023-06-14T15:56:03;3.42;;;1.10;;
52642;SDS011;38531;53.296;6.614;2023-06-14T15:58:29;3.33;;;1.10;;
52642;SDS011;38531;53.296;6.614;2023-06-14T16:00:54;1.90;;;0.70;;
52642;SDS011;38531;53.296;6.614;2023-06-14T16:03:20;3.38;;;0.90;;
52642;SDS011;38531;53.296;6.614;2023-06-14T16:05:46;2.00;;;0.70;;
52642;SDS011;38531;53.296;6.614;2023-06-14T16:08:11;2.35;;;0.85;;
52642;SDS011;38531;53.296;6.614;2023-06-14T16:10:40;2.95;;;1.00;;
52642;SDS011;38531;53.296;6.614;2023-06-14T16:13:05;4.68;;;1.00;;
52642;SDS011;38531;53.296;6.614;2023-06-14T16:15:31;2.30;;;0.95;;
52642;SDS011;38531;53.296;6.614;2023-06-14T16:17:57;3.30;;;0.88;;
52642;SDS011;38531;53.296;6.614;2023-06-14T16:20:23;1.33;;;0.70;;
52642;SDS011;38531;53.296;6.614;2023-06-14T16:22:48;5.43;;;1.05;;
52642;SDS011;38531;53.296;6.614;2023-06-14T16:25:14;3.72;;;0.90;;
52642;SDS011;38531;53.296;6.614;2023-06-14T16:27:40;4.75;;;0.90;;
52642;SDS011;38531;53.296;6.614;2023-06-14T16:30:06;2.95;;;1.05;;
52642;SDS011;38531;53.296;6.614;2023-06-14T16:32:32;4.03;;;0.90;;
52642;SDS011;38531;53.296;6.614;2023-06-14T16:34:58;1.70;;;0.80;;
52642;SDS011;38531;53.296;6.614;2023-06-14T16:37:24;2.47;;;0.80;;
52642;SDS011;38531;53.296;6.614;2023-06-14T16:39:50;2.72;;;0.93;;
52642;SDS011;38531;53.296;6.614;2023-06-14T16:42:16;1.40;;;0.85;;
52642;SDS011;38531;53.296;6.614;2023-06-14T16:44:41;2.90;;;0.98;;
52642;SDS011;38531;53.296;6.614;2023-06-14T16:47:07;4.07;;;0.85;;
52642;SDS011;38531;53.296;6.614;2023-06-14T16:49:35;5.78;;;1.17;;
52642;SDS011;38531;53.296;6.614;2023-06-14T16:52:00;3.17;;;0.80;;
52642;SDS011;38531;53.296;6.614;2023-06-14T16:54:26;4.20;;;1.00;;
52642;SDS011;38531;53.296;6.614;2023-06-14T16:56:52;3.92;;;0.85;;
52642;SDS011;38531;53.296;6.614;2023-06-14T16:59:17;1.85;;;0.88;;
52642;SDS011;38531;53.296;6.614;2023-06-14T17:01:43;3.50;;;0.80;;
52642;SDS011;38531;53.296;6.614;2023-06-14T17:04:09;3.75;;;1.13;;
52642;SDS011;38531;53.296;6.614;2023-06-14T17:06:35;1.98;;;0.90;;
52642;SDS011;38531;53.296;6.614;2023-06-14T17:09:00;2.45;;;0.90;;